sensor_id;sensor_type;location;lat;lon;timestamp;pressure;altitude;pressure_sealevel;temperature;humidity
39793;BME280;26080;42.264;24.536;2023-01-29T00:02:19;99409.34;;;1.15;100.00
39793;BME280;26080;42.264;24.536;2023-01-29T00:04:45;99419.59;;;1.24;100.00
39793;BME280;26080;42.264;24.536;2023-01-29T00:07:11;99444.44;;;1.37;100.00
39793;BME280;26080;42.264;24.536;2023-01-29T00:09:36;99442.66;;;1.42;100.00
39793;BME280;26080;42.264;24.536;2023-01-29T00:12:02;99446.97;;;1.43;100.00
39793;BME280;26080;42.264;24.536;2023-01-29T00:14:27;99456.38;;;1.47;100.00
39793;BME280;26080;42.264;24.536;2023-01-29T00:16:53;99455.50;;;1.48;100.00
39793;BME280;26080;42.264;24.536;2023-01-29T00:19:19;99457.22;;;1.49;100.00
39793;BME280;26080;42.264;24.536;2023-01-29T00:21:44;99419.56;;;1.27;100.00
39793;BME280;26080;42.264;24.536;2023-01-29T00:24:11;99458.88;;;1.58;100.00
39793;BME280;26080;42.264;24.536;2023-01-29T00:26:37;99428.13;;;1.32;100.00
39793;BME280;26080;42.264;24.536;2023-01-29T00:29:06;99463.22;;;1.56;100.00
39793;BME280;26080;42.264;24.536;2023-01-29T00:31:32;99467.53;;;1.53;100.00
39793;BME280;26080;42.264;24.536;2023-01-29T00:33:57;99447.88;;;1.39;100.00
39793;BME280;26080;42.264;24.536;2023-01-29T00:36:23;99470.09;;;1.54;100.00
39793;BME280;26080;42.264;24.536;2023-01-29T00:38:54;99441.91;;;1.31;100.00
39793;BME280;26080;42.264;24.536;2023-01-29T00:41:25;99467.53;;;1.49;100.00
39793;BME280;26080;42.264;24.536;2023-01-29T00:44:10;99476.16;;;1.48;100.00
39793;BME280;26080;42.264;24.536;2023-01-29T00:46:54;99479.59;;;1.51;100.00
39793;BME280;26080;42.264;24.536;2023-01-29T00:49:19;99481.28;;;1.55;100.00
39793;BME280;26080;42.264;24.536;2023-01-29T00:51:45;99473.56;;;1.53;100.00
39793;BME280;26080;42.264;24.536;2023-01-29T00:54:30;99477.88;;;1.53;100.00
39793;BME280;26080;42.264;24.536;2023-01-29T00:56:55;99479.59;;;1.52;100.00
39793;BME280;26080;42.264;24.536;2023-01-29T00:59:21;99471.00;;;1.52;100.00
39793;BME280;26080;42.264;24.536;2023-01-29T01:01:46;99473.59;;;1.52;100.00
39793;BME280;26080;42.264;24.536;2023-01-29T01:04:30;99471.84;;;1.51;100.00
39793;BME280;26080;42.264;24.536;2023-01-29T01:06:56;99455.56;;;1.42;100.00
39793;BME280;26080;42.264;24.536;2023-01-29T01:09:21;99453.88;;;1.41;100.00
39793;BME280;26080;42.264;24.536;2023-01-29T01:12:05;99479.50;;;1.61;100.00
39793;BME280;26080;42.264;24.536;2023-01-29T01:14:30;99478.63;;;1.64;100.00
39793;BME280;26080;42.264;24.536;2023-01-29T01:16:59;99481.94;;;1.76;100.00
39793;BME280;26080;42.264;24.536;2023-01-29T01:19:24;99475.97;;;1.73;100.00
39793;BME280;26080;42.264;24.536;2023-01-29T01:21:50;99478.63;;;1.65;100.00
39793;BME280;26080;42.264;24.536;2023-01-29T01:24:15;99482.03;;;1.64;100.00
39793;BME280;26080;42.264;24.536;2023-01-29T01:26:41;99481.22;;;1.61;100.00
39793;BME280;26080;42.264;24.536;2023-01-29T01:29:06;99483.78;;;1.64;100.00
39793;BME280;26080;42.264;24.536;2023-01-29T01:31:32;99488.97;;;1.65;100.00
39793;BME280;26080;42.264;24.536;2023-01-29T01:33:58;99482.03;;;1.67;100.00
39793;BME280;26080;42.264;24.536;2023-01-29T01:36:23;99476.06;;;1.61;100.00
39793;BME280;26080;42.264;24.536;2023-01-29T01:38:49;99484.63;;;1.64;100.00
39793;BME280;26080;42.264;24.536;2023-01-29T01:41:17;99480.34;;;1.63;100.00
39793;BME280;26080;42.264;24.536;2023-01-29T01:46:55;99488.09;;;1.65;100.00
39793;BME280;26080;42.264;24.536;2023-01-29T01:49:21;99481.19;;;1.64;100.00
39793;BME280;26080;42.264;24.536;2023-01-29T01:51:50;99481.22;;;1.61;100.00
39793;BME280;26080;42.264;24.536;2023-01-29T01:54:27;99451.31;;;1.38;100.00
39793;BME280;26080;42.264;24.536;2023-01-29T01:57:04;99483.03;;;1.53;100.00
39793;BME280;26080;42.264;24.536;2023-01-29T01:59:37;99480.47;;;1.46;100.00
39793;BME280;26080;42.264;24.536;2023-01-29T02:02:05;99491.69;;;1.45;100.00
39793;BME280;26080;42.264;24.536;2023-01-29T02:04:49;99479.72;;;1.32;100.00
39793;BME280;26080;42.264;24.536;2023-01-29T02:07:34;99487.44;;;1.40;100.00
39793;BME280;26080;42.264;24.536;2023-01-29T02:10:23;99488.31;;;1.37;100.00
39793;BME280;26080;42.264;24.536;2023-01-29T02:12:49;99486.56;;;1.39;100.00
39793;BME280;26080;42.264;24.536;2023-01-29T02:15:15;99492.59;;;1.40;100.00
39793;BME280;26080;42.264;24.536;2023-01-29T02:17:41;99490.88;;;1.40;100.00
39793;BME280;26080;42.264;24.536;2023-01-29T02:22:55;99510.66;;;1.41;100.00
39793;BME280;26080;42.264;24.536;2023-01-29T02:30:43;99514.09;;;1.39;100.00
39793;BME280;26080;42.264;24.536;2023-01-29T02:36:18;99518.41;;;1.38;100.00
39793;BME280;26080;42.264;24.536;2023-01-29T02:38:56;99517.53;;;1.39;100.00
39793;BME280;26080;42.264;24.536;2023-01-29T02:47:16;99516.69;;;1.34;100.00
39793;BME280;26080;42.264;24.536;2023-01-29T02:52:18;99515.00;;;1.30;100.00
39793;BME280;26080;42.264;24.536;2023-01-29T02:55:00;99499.59;;;1.18;100.00
39793;BME280;26080;42.264;24.536;2023-01-29T02:57:35;99518.47;;;1.29;100.00
39793;BME280;26080;42.264;24.536;2023-01-29T03:00:09;99526.22;;;1.28;100.00
39793;BME280;26080;42.264;24.536;2023-01-29T03:02:50;99524.50;;;1.28;100.00
39793;BME280;26080;42.264;24.536;2023-01-29T03:05:21;99519.34;;;1.25;100.00
39793;BME280;26080;42.264;24.536;2023-01-29T03:07:53;99526.22;;;1.26;100.00
39793;BME280;26080;42.264;24.536;2023-01-29T03:10:23;99529.69;;;1.25;100.00
39793;BME280;26080;42.264;24.536;2023-01-29T03:12:59;99532.22;;;1.28;100.00
39793;BME280;26080;42.264;24.536;2023-01-29T03:15:30;99533.13;;;1.24;100.00
39793;BME280;26080;42.264;24.536;2023-01-29T03:18:14;99531.38;;;1.26;100.00
39793;BME280;26080;42.264;24.536;2023-01-29T03:20:48;99532.31;;;1.14;100.00
39793;BME280;26080;42.264;24.536;2023-01-29T03:23:21;99544.31;;;1.22;100.00
39793;BME280;26080;42.264;24.536;2023-01-29T03:26:09;99529.75;;;1.11;100.00
39793;BME280;26080;42.264;24.536;2023-01-29T03:28:54;99553.75;;;1.21;100.00
39793;BME280;26080;42.264;24.536;2023-01-29T03:31:39;99545.22;;;1.14;100.00
39793;BME280;26080;42.264;24.536;2023-01-29T03:34:26;99549.47;;;1.22;100.00
39793;BME280;26080;42.264;24.536;2023-01-29T03:39:43;99553.78;;;1.18;100.00
39793;BME280;26080;42.264;24.536;2023-01-29T03:48:02;99563.22;;;1.22;100.00
39793;BME280;26080;42.264;24.536;2023-01-29T03:50:35;99517.78;;;0.94;100.00
39793;BME280;26080;42.264;24.536;2023-01-29T03:55:42;99564.94;;;1.26;100.00
39793;BME280;26080;42.264;24.536;2023-01-29T03:58:52;99567.50;;;1.28;100.00
39793;BME280;26080;42.264;24.536;2023-01-29T04:01:24;99568.38;;;1.27;100.00
39793;BME280;26080;42.264;24.536;2023-01-29T04:04:00;99568.38;;;1.27;100.00
39793;BME280;26080;42.264;24.536;2023-01-29T04:06:32;99572.69;;;1.26;100.00
39793;BME280;26080;42.264;24.536;2023-01-29T04:09:17;99582.97;;;1.28;100.00
39793;BME280;26080;42.264;24.536;2023-01-29T04:11:56;99581.25;;;1.28;100.00
39793;BME280;26080;42.264;24.536;2023-01-29T04:14:24;99552.09;;;1.14;100.00
39793;BME280;26080;42.264;24.536;2023-01-29T04:16:55;99580.38;;;1.32;100.00
39793;BME280;26080;42.264;24.536;2023-01-29T04:19:22;99587.25;;;1.33;100.00
39793;BME280;26080;42.264;24.536;2023-01-29T04:21:49;99582.94;;;1.32;100.00
39793;BME280;26080;42.264;24.536;2023-01-29T04:24:17;99579.53;;;1.30;100.00
39793;BME280;26080;42.264;24.536;2023-01-29T04:26:57;99575.22;;;1.32;100.00
39793;BME280;26080;42.264;24.536;2023-01-29T04:31:59;99586.41;;;1.31;100.00
39793;BME280;26080;42.264;24.536;2023-01-29T04:34:35;99589.84;;;1.30;100.00
39793;BME280;26080;42.264;24.536;2023-01-29T04:39:47;99588.09;;;1.32;100.00
39793;BME280;26080;42.264;24.536;2023-01-29T04:43:01;99586.38;;;1.33;100.00
39793;BME280;26080;42.264;24.536;2023-01-29T04:45:37;99587.25;;;1.32;100.00
39793;BME280;26080;42.264;24.536;2023-01-29T04:50:55;99588.94;;;1.39;100.00
39793;BME280;26080;42.264;24.536;2023-01-29T04:53:46;99582.91;;;1.40;100.00
39793;BME280;26080;42.264;24.536;2023-01-29T04:59:04;99598.25;;;1.63;100.00
39793;BME280;26080;42.264;24.536;2023-01-29T05:01:32;99562.19;;;1.51;100.00
39793;BME280;26080;42.264;24.536;2023-01-29T05:04:04;99599.03;;;1.78;100.00
39793;BME280;26080;42.264;24.536;2023-01-29T05:06:34;99599.84;;;1.82;100.00
39793;BME280;26080;42.264;24.536;2023-01-29T05:09:00;99603.25;;;1.87;100.00
39793;BME280;26080;42.264;24.536;2023-01-29T05:11:27;99600.56;;;1.99;100.00
39793;BME280;26080;42.264;24.536;2023-01-29T05:13:54;99585.97;;;1.95;100.00
39793;BME280;26080;42.264;24.536;2023-01-29T05:16:29;99607.41;;;2.06;100.00
39793;BME280;26080;42.264;24.536;2023-01-29T05:19:09;99554.28;;;1.72;100.00
39793;BME280;26080;42.264;24.536;2023-01-29T05:21:36;99607.41;;;2.05;100.00
39793;BME280;26080;42.264;24.536;2023-01-29T05:24:11;99613.41;;;2.12;100.00
39793;BME280;26080;42.264;24.536;2023-01-29T05:26:37;99611.59;;;2.18;100.00
39793;BME280;26080;42.264;24.536;2023-01-29T05:29:21;99613.34;;;2.15;100.00
39793;BME280;26080;42.264;24.536;2023-01-29T05:31:47;99619.41;;;2.14;100.00
39793;BME280;26080;42.264;24.536;2023-01-29T05:34:13;99618.59;;;2.08;100.00
39793;BME280;26080;42.264;24.536;2023-01-29T05:36:38;99615.94;;;2.15;100.00
39793;BME280;26080;42.264;24.536;2023-01-29T05:39:03;99616.78;;;2.17;100.00
39793;BME280;26080;42.264;24.536;2023-01-29T05:41:29;99619.34;;;2.23;100.00
39793;BME280;26080;42.264;24.536;2023-01-29T05:43:54;99626.22;;;2.19;100.00
39793;BME280;26080;42.264;24.536;2023-01-29T05:46:20;99630.53;;;2.22;100.00
39793;BME280;26080;42.264;24.536;2023-01-29T05:48:45;99631.28;;;2.33;100.00
39793;BME280;26080;42.264;24.536;2023-01-29T05:51:11;99639.06;;;2.30;100.00
39793;BME280;26080;42.264;24.536;2023-01-29T05:53:36;99625.38;;;2.22;100.00
39793;BME280;26080;42.264;24.536;2023-01-29T05:56:03;99645.00;;;2.41;100.00
39793;BME280;26080;42.264;24.536;2023-01-29T05:58:30;99648.41;;;2.46;100.00
39793;BME280;26080;42.264;24.536;2023-01-29T06:00:56;99640.63;;;2.46;100.00
39793;BME280;26080;42.264;24.536;2023-01-29T06:03:22;99643.34;;;2.37;100.00
39793;BME280;26080;42.264;24.536;2023-01-29T06:05:47;99644.34;;;2.21;100.00
39793;BME280;26080;42.264;24.536;2023-01-29T06:08:13;99611.91;;;1.80;100.00
39793;BME280;26080;42.264;24.536;2023-01-29T06:10:38;99629.94;;;1.88;100.00
39793;BME280;26080;42.264;24.536;2023-01-29T06:13:04;99634.28;;;1.78;100.00
39793;BME280;26080;42.264;24.536;2023-01-29T06:15:29;99628.31;;;1.73;100.00
39793;BME280;26080;42.264;24.536;2023-01-29T06:17:55;99666.06;;;1.92;100.00
39793;BME280;26080;42.264;24.536;2023-01-29T06:20:23;99665.16;;;1.98;100.00
39793;BME280;26080;42.264;24.536;2023-01-29T06:22:48;99662.63;;;1.93;100.00
39793;BME280;26080;42.264;24.536;2023-01-29T06:25:14;99672.91;;;1.99;100.00
39793;BME280;26080;42.264;24.536;2023-01-29T06:27:39;99670.31;;;1.99;100.00
39793;BME280;26080;42.264;24.536;2023-01-29T06:30:05;99679.75;;;2.05;100.00
39793;BME280;26080;42.264;24.536;2023-01-29T06:32:32;99678.84;;;2.11;100.00
39793;BME280;26080;42.264;24.536;2023-01-29T06:34:57;99689.13;;;2.17;100.00
39793;BME280;26080;42.264;24.536;2023-01-29T06:37:22;99677.06;;;2.19;100.00
39793;BME280;26080;42.264;24.536;2023-01-29T06:39:48;99659.91;;;2.12;100.00
39793;BME280;26080;42.264;24.536;2023-01-29T06:42:14;99695.00;;;2.38;100.00
39793;BME280;26080;42.264;24.536;2023-01-29T06:44:39;99687.13;;;2.52;100.00
39793;BME280;26080;42.264;24.536;2023-01-29T06:47:05;99695.63;;;2.66;100.00
39793;BME280;26080;42.264;24.536;2023-01-29T06:49:30;99696.31;;;2.84;100.00
39793;BME280;26080;42.264;24.536;2023-01-29T06:51:56;99699.78;;;2.84;100.00
39793;BME280;26080;42.264;24.536;2023-01-29T06:54:21;99706.63;;;2.90;100.00
39793;BME280;26080;42.264;24.536;2023-01-29T06:56:47;99694.59;;;2.84;100.00
39793;BME280;26080;42.264;24.536;2023-01-29T06:59:13;99713.44;;;2.98;100.00
39793;BME280;26080;42.264;24.536;2023-01-29T07:01:39;99715.06;;;3.09;100.00
39793;BME280;26080;42.264;24.536;2023-01-29T07:04:09;99711.59;;;3.08;100.00
39793;BME280;26080;42.264;24.536;2023-01-29T07:06:34;99700.47;;;3.02;100.00
39793;BME280;26080;42.264;24.536;2023-01-29T07:09:00;99692.75;;;2.95;100.00
39793;BME280;26080;42.264;24.536;2023-01-29T07:11:25;99727.94;;;3.13;100.00
39793;BME280;26080;42.264;24.536;2023-01-29T07:13:51;99720.16;;;3.16;100.00
39793;BME280;26080;42.264;24.536;2023-01-29T07:16:16;99712.41;;;3.13;100.00
39793;BME280;26080;42.264;24.536;2023-01-29T07:18:43;99718.50;;;3.09;100.00
39793;BME280;26080;42.264;24.536;2023-01-29T07:21:08;99728.91;;;3.05;100.00
39793;BME280;26080;42.264;24.536;2023-01-29T07:23:34;99730.56;;;3.10;100.00
39793;BME280;26080;42.264;24.536;2023-01-29T07:26:01;99732.34;;;3.07;100.00
39793;BME280;26080;42.264;24.536;2023-01-29T07:28:45;99731.47;;;3.06;100.00
39793;BME280;26080;42.264;24.536;2023-01-29T07:31:11;99739.19;;;3.11;100.00
39793;BME280;26080;42.264;24.536;2023-01-29T07:33:37;99738.31;;;3.10;100.00
39793;BME280;26080;42.264;24.536;2023-01-29T07:36:06;99740.00;;;3.13;100.00
39793;BME280;26080;42.264;24.536;2023-01-29T07:38:32;99729.69;;;3.11;100.00
39793;BME280;26080;42.264;24.536;2023-01-29T07:40:57;99733.16;;;3.09;100.00
39793;BME280;26080;42.264;24.536;2023-01-29T07:43:23;99731.44;;;3.09;100.00
39793;BME280;26080;42.264;24.536;2023-01-29T07:45:49;99728.78;;;3.17;100.00
39793;BME280;26080;42.264;24.536;2023-01-29T07:48:14;99725.31;;;3.15;100.00
39793;BME280;26080;42.264;24.536;2023-01-29T07:50:40;99733.06;;;3.19;100.00
39793;BME280;26080;42.264;24.536;2023-01-29T07:53:05;99729.53;;;3.26;100.00
39793;BME280;26080;42.264;24.536;2023-01-29T07:55:32;99710.53;;;3.27;100.00
39793;BME280;26080;42.264;24.536;2023-01-29T07:58:00;99728.38;;;3.52;100.00
39793;BME280;26080;42.264;24.536;2023-01-29T08:00:26;99734.38;;;3.54;100.00
39793;BME280;26080;42.264;24.536;2023-01-29T08:02:52;99737.84;;;3.53;100.00
39793;BME280;26080;42.264;24.536;2023-01-29T08:05:18;99743.66;;;3.73;100.00
39793;BME280;26080;42.264;24.536;2023-01-29T08:07:44;99754.03;;;3.73;100.00
39793;BME280;26080;42.264;24.536;2023-01-29T08:10:10;99725.66;;;3.63;100.00
39793;BME280;26080;42.264;24.536;2023-01-29T08:12:35;99741.97;;;3.71;100.00
39793;BME280;26080;42.264;24.536;2023-01-29T08:15:01;99721.34;;;3.62;100.00
39793;BME280;26080;42.264;24.536;2023-01-29T08:17:27;99737.72;;;3.64;100.00
39793;BME280;26080;42.264;24.536;2023-01-29T08:19:52;99722.44;;;3.41;100.00
39793;BME280;26080;42.264;24.536;2023-01-29T08:22:17;99758.47;;;3.62;100.00
39793;BME280;26080;42.264;24.536;2023-01-29T08:24:43;99752.38;;;3.66;100.00
39793;BME280;26080;42.264;24.536;2023-01-29T08:27:08;99750.69;;;3.64;100.00
39793;BME280;26080;42.264;24.536;2023-01-29T08:29:34;99749.03;;;3.55;100.00
39793;BME280;26080;42.264;24.536;2023-01-29T08:32:00;99751.63;;;3.55;100.00
39793;BME280;26080;42.264;24.536;2023-01-29T08:34:25;99743.16;;;3.44;100.00
39793;BME280;26080;42.264;24.536;2023-01-29T08:36:51;99752.53;;;3.52;100.00
39793;BME280;26080;42.264;24.536;2023-01-29T08:39:17;99744.09;;;3.35;100.00
39793;BME280;26080;42.264;24.536;2023-01-29T08:41:43;99730.41;;;3.25;100.00
39793;BME280;26080;42.264;24.536;2023-01-29T08:44:08;99742.41;;;3.33;100.00
39793;BME280;26080;42.264;24.536;2023-01-29T08:46:34;99756.06;;;3.47;100.00
39793;BME280;26080;42.264;24.536;2023-01-29T08:48:59;99765.53;;;3.49;100.00
39793;BME280;26080;42.264;24.536;2023-01-29T08:51:25;99760.25;;;3.59;100.00
39793;BME280;26080;42.264;24.536;2023-01-29T08:53:51;99739.56;;;3.54;100.00
39793;BME280;26080;42.264;24.536;2023-01-29T08:56:16;99762.56;;;3.80;100.00
39793;BME280;26080;42.264;24.536;2023-01-29T08:58:42;99761.44;;;4.01;100.00
39793;BME280;26080;42.264;24.536;2023-01-29T09:01:09;99762.19;;;4.07;100.00
39793;BME280;26080;42.264;24.536;2023-01-29T09:03:35;99778.53;;;4.14;100.00
39793;BME280;26080;42.264;24.536;2023-01-29T09:06:02;99766.53;;;4.07;100.00
39793;BME280;26080;42.264;24.536;2023-01-29T09:08:27;99770.81;;;4.09;100.00
39793;BME280;26080;42.264;24.536;2023-01-29T09:10:53;99766.50;;;4.11;100.00
39793;BME280;26080;42.264;24.536;2023-01-29T09:13:18;99763.75;;;4.21;100.00
39793;BME280;26080;42.264;24.536;2023-01-29T09:15:44;99738.84;;;4.09;100.00
39793;BME280;26080;42.264;24.536;2023-01-29T09:18:12;99766.13;;;4.34;100.00
39793;BME280;26080;42.264;24.536;2023-01-29T09:20:37;99745.31;;;4.40;100.00
39793;BME280;26080;42.264;24.536;2023-01-29T09:23:05;99756.16;;;4.64;100.00
39793;BME280;26080;42.264;24.536;2023-01-29T09:25:31;99765.53;;;4.74;100.00
39793;BME280;26080;42.264;24.536;2023-01-29T09:27:56;99761.97;;;4.81;100.00
39793;BME280;26080;42.264;24.536;2023-01-29T09:30:25;99763.47;;;4.94;100.00
39793;BME280;26080;42.264;24.536;2023-01-29T09:32:50;99762.50;;;5.00;100.00
39793;BME280;26080;42.264;24.536;2023-01-29T09:35:15;99765.22;;;4.92;100.00
39793;BME280;26080;42.264;24.536;2023-01-29T09:37:46;99759.88;;;5.01;100.00
39793;BME280;26080;42.264;24.536;2023-01-29T09:46:05;99757.06;;;5.14;100.00
39793;BME280;26080;42.264;24.536;2023-01-29T09:48:33;99751.72;;;5.23;100.00
39793;BME280;26080;42.264;24.536;2023-01-29T09:51:03;99758.09;;;5.51;100.00
39793;BME280;26080;42.264;24.536;2023-01-29T09:53:39;99746.91;;;5.46;100.00
39793;BME280;26080;42.264;24.536;2023-01-29T09:56:17;99738.22;;;5.47;100.00
39793;BME280;26080;42.264;24.536;2023-01-29T09:58:43;99738.81;;;5.61;100.00
39793;BME280;26080;42.264;24.536;2023-01-29T10:02:02;99735.97;;;5.74;100.00
39793;BME280;26080;42.264;24.536;2023-01-29T10:07:50;99736.34;;;5.55;100.00
39793;BME280;26080;42.264;24.536;2023-01-29T10:15:54;99722.53;;;5.53;100.00
39793;BME280;26080;42.264;24.536;2023-01-29T10:24:00;99695.84;;;5.87;100.00
39793;BME280;26080;42.264;24.536;2023-01-29T10:26:30;99692.09;;;6.00;100.00
39793;BME280;26080;42.264;24.536;2023-01-29T10:28:58;99688.13;;;6.22;100.00
39793;BME280;26080;42.264;24.536;2023-01-29T10:31:29;99694.31;;;6.54;100.00
39793;BME280;26080;42.264;24.536;2023-01-29T10:36:43;99692.22;;;6.68;100.00
39793;BME280;26080;42.264;24.536;2023-01-29T10:39:20;99688.38;;;6.49;100.00
39793;BME280;26080;42.264;24.536;2023-01-29T10:44:35;99685.50;;;6.60;100.00
39793;BME280;26080;42.264;24.536;2023-01-29T10:47:25;99688.69;;;6.35;100.00
39793;BME280;26080;42.264;24.536;2023-01-29T10:58:40;99655.78;;;6.34;100.00
39793;BME280;26080;42.264;24.536;2023-01-29T11:01:09;99644.13;;;6.13;100.00
39793;BME280;26080;42.264;24.536;2023-01-29T11:03:34;99670.75;;;6.24;100.00
39793;BME280;26080;42.264;24.536;2023-01-29T11:06:37;99673.41;;;6.21;100.00
39793;BME280;26080;42.264;24.536;2023-01-29T11:09:27;99666.59;;;6.17;100.00
39793;BME280;26080;42.264;24.536;2023-01-29T11:12:02;99672.81;;;6.10;100.00
39793;BME280;26080;42.264;24.536;2023-01-29T11:14:41;99674.41;;;6.16;100.00
39793;BME280;26080;42.264;24.536;2023-01-29T11:17:34;99671.47;;;6.31;100.00
39793;BME280;26080;42.264;24.536;2023-01-29T11:19:59;99661.97;;;6.64;100.00
39793;BME280;26080;42.264;24.536;2023-01-29T11:22:27;99664.88;;;6.84;100.00
39793;BME280;26080;42.264;24.536;2023-01-29T11:25:16;99648.31;;;6.89;100.00
39793;BME280;26080;42.264;24.536;2023-01-29T11:30:20;99654.00;;;7.03;100.00
39793;BME280;26080;42.264;24.536;2023-01-29T11:35:24;99635.78;;;7.03;100.00
39793;BME280;26080;42.264;24.536;2023-01-29T11:37:49;99642.16;;;6.91;98.94
39793;BME280;26080;42.264;24.536;2023-01-29T11:42:45;99627.13;;;6.68;100.00
39793;BME280;26080;42.264;24.536;2023-01-29T11:45:26;99635.75;;;6.72;100.00
39793;BME280;26080;42.264;24.536;2023-01-29T11:47:55;99633.38;;;6.63;100.00
39793;BME280;26080;42.264;24.536;2023-01-29T11:50:29;99628.94;;;6.66;100.00
39793;BME280;26080;42.264;24.536;2023-01-29T11:52:57;99603.13;;;6.57;99.22
39793;BME280;26080;42.264;24.536;2023-01-29T11:55:27;99635.75;;;6.70;97.08
39793;BME280;26080;42.264;24.536;2023-01-29T11:58:05;99633.41;;;6.61;97.21
39793;BME280;26080;42.264;24.536;2023-01-29T12:00:38;99625.34;;;6.70;97.54
39793;BME280;26080;42.264;24.536;2023-01-29T12:05:40;99625.59;;;6.61;95.70
39793;BME280;26080;42.264;24.536;2023-01-29T12:08:15;99619.34;;;6.68;97.25
39793;BME280;26080;42.264;24.536;2023-01-29T12:10:42;99626.88;;;6.79;93.83
39793;BME280;26080;42.264;24.536;2023-01-29T12:15:46;99608.59;;;6.80;90.00
39793;BME280;26080;42.264;24.536;2023-01-29T12:18:20;99607.13;;;6.70;89.63
39793;BME280;26080;42.264;24.536;2023-01-29T12:20:54;99603.81;;;6.65;93.91
39793;BME280;26080;42.264;24.536;2023-01-29T12:26:18;99568.81;;;6.43;94.00
39793;BME280;26080;42.264;24.536;2023-01-29T12:34:45;99596.16;;;6.59;93.50
39793;BME280;26080;42.264;24.536;2023-01-29T12:37:26;99603.81;;;6.65;92.30
39793;BME280;26080;42.264;24.536;2023-01-29T12:39:53;99600.31;;;6.66;91.95
39793;BME280;26080;42.264;24.536;2023-01-29T12:42:21;99599.88;;;6.81;90.10
39793;BME280;26080;42.264;24.536;2023-01-29T12:45:06;99607.84;;;6.77;90.92
39793;BME280;26080;42.264;24.536;2023-01-29T12:47:44;99579.63;;;6.28;91.27
39793;BME280;26080;42.264;24.536;2023-01-29T12:50:22;99610.56;;;6.38;91.61
39793;BME280;26080;42.264;24.536;2023-01-29T12:55:42;99607.53;;;6.55;90.04
39793;BME280;26080;42.264;24.536;2023-01-29T12:58:14;99614.84;;;6.41;94.41
39793;BME280;26080;42.264;24.536;2023-01-29T13:00:43;99613.19;;;6.38;93.24
39793;BME280;26080;42.264;24.536;2023-01-29T13:05:46;99608.88;;;6.37;94.11
39793;BME280;26080;42.264;24.536;2023-01-29T13:11:14;99604.59;;;6.35;93.63
39793;BME280;26080;42.264;24.536;2023-01-29T13:13:51;99612.16;;;6.44;93.37
39793;BME280;26080;42.264;24.536;2023-01-29T13:16:20;99612.63;;;6.60;94.56
39793;BME280;26080;42.264;24.536;2023-01-29T13:18:57;99605.81;;;6.54;93.73
39793;BME280;26080;42.264;24.536;2023-01-29T13:21:29;99612.72;;;6.55;90.23
39793;BME280;26080;42.264;24.536;2023-01-29T13:23:58;99606.09;;;6.43;90.78
39793;BME280;26080;42.264;24.536;2023-01-29T13:26:26;99612.44;;;6.33;90.24
39793;BME280;26080;42.264;24.536;2023-01-29T13:28:53;99602.81;;;6.37;92.49
39793;BME280;26080;42.264;24.536;2023-01-29T13:31:23;99614.84;;;6.41;93.66
39793;BME280;26080;42.264;24.536;2023-01-29T13:34:12;99607.97;;;6.38;93.92
39793;BME280;26080;42.264;24.536;2023-01-29T13:36:43;99603.75;;;6.34;93.05
39793;BME280;26080;42.264;24.536;2023-01-29T13:39:51;99605.59;;;6.29;93.88
39793;BME280;26080;42.264;24.536;2023-01-29T13:42:21;99609.13;;;6.27;93.41
39793;BME280;26080;42.264;24.536;2023-01-29T13:44:49;99587.19;;;6.03;94.39
39793;BME280;26080;42.264;24.536;2023-01-29T13:47:30;99612.31;;;6.02;93.69
39793;BME280;26080;42.264;24.536;2023-01-29T13:50:02;99619.53;;;5.91;99.96
39793;BME280;26080;42.264;24.536;2023-01-29T13:52:38;99628.47;;;5.78;98.99
39793;BME280;26080;42.264;24.536;2023-01-29T13:55:20;99625.97;;;5.73;97.95
39793;BME280;26080;42.264;24.536;2023-01-29T13:57:50;99618.97;;;5.75;98.10
39793;BME280;26080;42.264;24.536;2023-01-29T14:02:44;99624.06;;;5.81;100.00
39793;BME280;26080;42.264;24.536;2023-01-29T14:13:43;99619.06;;;5.72;100.00
39793;BME280;26080;42.264;24.536;2023-01-29T14:18:35;99630.16;;;5.40;100.00
39793;BME280;26080;42.264;24.536;2023-01-29T14:23:43;99632.38;;;5.17;100.00
39793;BME280;26080;42.264;24.536;2023-01-29T14:26:32;99635.09;;;5.11;100.00
39793;BME280;26080;42.264;24.536;2023-01-29T14:31:35;99639.88;;;4.87;100.00
39793;BME280;26080;42.264;24.536;2023-01-29T14:34:02;99646.19;;;4.72;100.00
39793;BME280;26080;42.264;24.536;2023-01-29T14:36:38;99646.47;;;4.57;100.00
39793;BME280;26080;42.264;24.536;2023-01-29T14:39:05;99651.06;;;4.41;100.00
39793;BME280;26080;42.264;24.536;2023-01-29T14:41:32;99635.94;;;4.15;100.00
39793;BME280;26080;42.264;24.536;2023-01-29T14:47:02;99642.34;;;3.92;100.00
39793;BME280;26080;42.264;24.536;2023-01-29T14:52:17;99647.72;;;3.79;100.00
39793;BME280;26080;42.264;24.536;2023-01-29T14:54:46;99650.44;;;3.72;100.00
39793;BME280;26080;42.264;24.536;2023-01-29T14:57:15;99619.66;;;3.49;100.00
39793;BME280;26080;42.264;24.536;2023-01-29T14:59:55;99653.22;;;3.55;100.00
39793;BME280;26080;42.264;24.536;2023-01-29T15:02:25;99646.53;;;3.39;100.00
39793;BME280;26080;42.264;24.536;2023-01-29T15:04:58;99659.47;;;3.39;100.00
39793;BME280;26080;42.264;24.536;2023-01-29T15:07:35;99643.25;;;3.24;100.00
39793;BME280;26080;42.264;24.536;2023-01-29T15:13:13;99657.22;;;3.11;100.00
39793;BME280;26080;42.264;24.536;2023-01-29T15:16:00;99662.53;;;3.02;100.00
39793;BME280;26080;42.264;24.536;2023-01-29T15:18:33;99660.03;;;2.93;100.00
39793;BME280;26080;42.264;24.536;2023-01-29T15:21:12;99674.75;;;2.88;100.00
39793;BME280;26080;42.264;24.536;2023-01-29T15:23:38;99666.13;;;2.86;100.00
39793;BME280;26080;42.264;24.536;2023-01-29T15:26:08;99657.53;;;2.84;100.00